createdAt,value
2019-02-21T00:00:59.827Z,31.90
2019-02-21T00:03:26.879Z,26.60
2019-02-21T00:05:52.164Z,31.63
2019-02-21T00:08:17.354Z,25.93
2019-02-21T00:10:42.499Z,21.47
2019-02-21T00:13:07.765Z,24.33
2019-02-21T00:15:32.958Z,28.90
2019-02-21T00:17:58.096Z,28.67
2019-02-21T00:20:23.583Z,28.50
2019-02-21T00:22:48.750Z,28.50
2019-02-21T00:25:13.928Z,25.93
2019-02-21T00:27:39.119Z,32.73
2019-02-21T00:30:05.743Z,30.77
2019-02-21T00:32:30.985Z,29.60
2019-02-21T00:34:56.173Z,26.97
2019-02-21T00:37:22.337Z,33.33
2019-02-21T00:39:47.487Z,26.97
2019-02-21T00:42:12.691Z,29.03
2019-02-21T00:44:37.832Z,38.37
2019-02-21T00:47:03.010Z,25.77
2019-02-21T00:49:28.320Z,28.73
2019-02-21T00:51:53.495Z,27.47
2019-02-21T00:54:18.643Z,28.80
2019-02-21T00:56:43.991Z,26.50
2019-02-21T00:59:09.143Z,26.57
2019-02-21T01:01:34.298Z,31.17
2019-02-21T01:03:59.568Z,32.67
2019-02-21T01:06:24.715Z,25.37
2019-02-21T01:08:49.960Z,27.53
2019-02-21T01:11:22.003Z,31.50
2019-02-21T01:13:47.148Z,25.70
2019-02-21T01:16:12.626Z,25.10
2019-02-21T01:18:37.895Z,27.13
2019-02-21T01:21:03.152Z,28.17
2019-02-21T01:23:28.299Z,26.87
2019-02-21T01:25:53.755Z,29.90
2019-02-21T01:28:18.887Z,27.37
2019-02-21T01:30:44.055Z,25.70
2019-02-21T01:33:09.240Z,31.57
2019-02-21T01:35:34.391Z,27.63
2019-02-21T01:37:59.577Z,22.47
2019-02-21T01:40:24.739Z,32.13
2019-02-21T01:42:49.887Z,30.33
2019-02-21T01:45:15.045Z,31.00
2019-02-21T01:47:40.223Z,29.80
2019-02-21T01:50:06.627Z,25.93
2019-02-21T01:52:31.795Z,24.70
2019-02-21T01:54:57.072Z,32.60
2019-02-21T01:57:22.218Z,29.00
2019-02-21T01:59:47.372Z,27.33
2019-02-21T02:02:12.547Z,29.97
2019-02-21T02:04:38.705Z,32.50
2019-02-21T02:07:03.980Z,26.90
2019-02-21T02:09:29.255Z,25.53
2019-02-21T02:11:54.418Z,27.10
2019-02-21T02:14:19.655Z,23.50
2019-02-21T02:16:44.839Z,33.50
2019-02-21T02:19:10.012Z,38.33
2019-02-21T02:21:35.178Z,31.70
2019-02-21T02:24:00.326Z,24.70
2019-02-21T02:26:25.505Z,28.43
2019-02-21T02:28:50.642Z,30.63
2019-02-21T02:31:22.600Z,31.53
2019-02-21T02:33:42.856Z,28.67
2019-02-21T02:36:08.002Z,31.60
2019-02-21T02:38:33.167Z,32.37
2019-02-21T02:40:58.341Z,29.03
2019-02-21T02:43:23.539Z,29.87
2019-02-21T02:45:48.715Z,33.50
2019-02-21T02:48:13.853Z,33.43
2019-02-21T02:50:39.148Z,35.83
2019-02-21T02:53:04.326Z,30.10
2019-02-21T02:55:29.468Z,38.30
2019-02-21T02:57:54.623Z,32.23
2019-02-21T03:00:20.976Z,34.40
2019-02-21T03:02:46.155Z,32.93
2019-02-21T03:05:11.294Z,29.63
2019-02-21T03:07:36.442Z,32.40
2019-02-21T03:10:01.602Z,30.53
2019-02-21T03:12:28.052Z,32.03
2019-02-21T03:14:53.224Z,32.07
2019-02-21T03:17:18.392Z,34.77
2019-02-21T03:19:43.552Z,32.47
2019-02-21T03:22:08.686Z,37.93
2019-02-21T03:24:33.886Z,30.97
2019-02-21T03:26:59.022Z,32.97
2019-02-21T03:29:24.211Z,34.90
2019-02-21T03:31:55.615Z,38.03
2019-02-21T03:34:20.075Z,37.77
2019-02-21T03:36:45.405Z,39.87
2019-02-21T03:39:10.791Z,39.87
2019-02-21T03:41:36.058Z,34.97
2019-02-21T03:44:01.195Z,37.30
2019-02-21T03:46:27.164Z,42.83
2019-02-21T03:48:52.431Z,37.60
2019-02-21T03:51:17.883Z,29.07
2019-02-21T03:53:43.160Z,33.20
2019-02-21T03:56:08.495Z,38.63
2019-02-21T03:58:34.279Z,32.73
2019-02-21T04:00:59.556Z,35.63
2019-02-21T04:03:24.956Z,40.27
2019-02-21T04:05:50.216Z,31.23
2019-02-21T04:08:15.390Z,35.13
2019-02-21T04:10:40.842Z,32.77
2019-02-21T04:13:06.106Z,30.47
2019-02-21T04:15:31.715Z,30.97
2019-02-21T04:17:57.111Z,32.73
2019-02-21T04:20:23.015Z,30.90
2019-02-21T04:22:48.237Z,33.93
2019-02-21T04:25:13.515Z,35.87
2019-02-21T04:27:38.883Z,38.63
2019-02-21T04:30:07.622Z,33.03
2019-02-21T04:32:32.793Z,31.57
2019-02-21T04:34:58.036Z,42.43
2019-02-21T04:37:23.352Z,35.03
2019-02-21T04:39:48.560Z,39.30
2019-02-21T04:42:14.098Z,38.60
2019-02-21T04:44:39.566Z,36.33
2019-02-21T04:47:05.191Z,37.93
2019-02-21T04:49:30.752Z,39.73
2019-02-21T04:51:56.458Z,50.00
2019-02-21T04:54:21.721Z,37.17
2019-02-21T04:56:46.896Z,32.10
2019-02-21T04:59:12.869Z,37.10
2019-02-21T05:01:40.294Z,31.63
2019-02-21T05:04:05.393Z,32.40
2019-02-21T05:06:30.645Z,33.50
2019-02-21T05:08:56.116Z,35.80
2019-02-21T05:11:21.420Z,35.00
2019-02-21T05:13:46.708Z,34.30
2019-02-21T05:16:11.933Z,39.67
2019-02-21T05:18:37.213Z,32.10
2019-02-21T05:21:02.379Z,38.80
2019-02-21T05:23:27.545Z,32.57
2019-02-21T05:25:52.955Z,40.73
2019-02-21T05:28:20.114Z,39.20
2019-02-21T05:30:46.535Z,44.80
2019-02-21T05:33:16.552Z,29.70
2019-02-21T05:35:46.462Z,33.97
2019-02-21T05:38:13.605Z,37.83
2019-02-21T05:40:43.880Z,33.93
2019-02-21T05:43:11.048Z,35.77
2019-02-21T05:45:38.125Z,37.13
2019-02-21T05:48:05.461Z,36.53
2019-02-21T05:50:35.073Z,36.03
2019-02-21T05:53:14.687Z,37.37
2019-02-21T05:55:44.628Z,33.63
2019-02-21T05:58:14.363Z,28.60
2019-02-21T06:00:52.140Z,33.03
2019-02-21T06:03:37.852Z,39.20
2019-02-21T06:06:17.227Z,30.87
2019-02-21T06:08:44.214Z,32.73
2019-02-21T06:11:14.030Z,32.40
2019-02-21T06:13:44.805Z,30.60
2019-02-21T06:16:17.894Z,30.90
2019-02-21T06:18:50.915Z,30.60
2019-02-21T06:21:18.009Z,36.00
2019-02-21T06:23:45.178Z,32.87
2019-02-21T06:26:18.596Z,34.63
2019-02-21T06:28:46.851Z,32.67
2019-02-21T06:31:12.130Z,35.77
2019-02-21T06:33:37.530Z,32.00
2019-02-21T06:36:02.695Z,33.90
2019-02-21T06:38:27.889Z,34.83
2019-02-21T06:40:53.722Z,35.33
2019-02-21T06:43:19.289Z,37.70
2019-02-21T06:45:44.460Z,30.23
2019-02-21T06:48:09.786Z,33.27
2019-02-21T06:50:35.048Z,35.77
2019-02-21T06:53:00.257Z,31.50
2019-02-21T06:55:25.682Z,37.50
2019-02-21T06:57:50.943Z,35.60
2019-02-21T07:00:16.239Z,32.67
2019-02-21T07:02:42.089Z,37.97
2019-02-21T07:05:07.540Z,32.37
2019-02-21T07:07:32.718Z,33.10
2019-02-21T07:09:58.056Z,33.00
2019-02-21T07:12:23.207Z,39.33
2019-02-21T07:14:48.430Z,45.40
2019-02-21T07:17:14.042Z,31.83
2019-02-21T07:19:39.231Z,33.43
2019-02-21T07:22:06.300Z,31.07
2019-02-21T07:24:32.722Z,29.80
2019-02-21T07:26:58.261Z,30.13
2019-02-21T07:29:23.931Z,36.17
2019-02-21T07:31:49.681Z,34.13
2019-02-21T07:34:15.312Z,32.43
2019-02-21T07:36:40.478Z,33.13
2019-02-21T07:39:16.910Z,33.03
2019-02-21T07:41:32.855Z,30.33
2019-02-21T07:43:58.075Z,33.70
2019-02-21T07:46:23.248Z,34.40
2019-02-21T07:48:49.799Z,31.23
2019-02-21T07:51:15.282Z,35.53
2019-02-21T07:53:40.551Z,32.50
2019-02-21T07:56:05.827Z,42.13
2019-02-21T07:58:31.015Z,41.20
2019-02-21T08:00:56.175Z,38.43
2019-02-21T08:03:29.833Z,27.30
2019-02-21T08:05:48.670Z,32.07
2019-02-21T08:08:13.843Z,32.23
2019-02-21T08:10:39.124Z,29.83
2019-02-21T08:13:04.402Z,29.97
2019-02-21T08:15:29.677Z,33.00
2019-02-21T08:17:54.835Z,29.40
2019-02-21T08:20:20.052Z,33.80
2019-02-21T08:22:45.220Z,37.63
2019-02-21T08:25:10.387Z,37.87
2019-02-21T08:27:35.686Z,34.13
2019-02-21T08:30:00.837Z,31.77
2019-02-21T08:32:27.909Z,36.40
2019-02-21T08:34:53.211Z,42.03
2019-02-21T08:37:18.375Z,33.77
2019-02-21T08:39:43.715Z,32.77
2019-02-21T08:42:08.934Z,34.83
2019-02-21T08:44:34.145Z,39.13
2019-02-21T08:47:00.432Z,35.13
2019-02-21T08:49:25.648Z,30.83
2019-02-21T08:51:50.820Z,36.23
2019-02-21T08:54:16.104Z,36.17
2019-02-21T08:56:41.273Z,32.00
2019-02-21T08:59:06.456Z,32.23
2019-02-21T09:01:31.633Z,34.53
2019-02-21T09:03:56.889Z,29.33
2019-02-21T09:06:24.684Z,38.03
2019-02-21T09:08:49.359Z,30.30
2019-02-21T09:11:14.550Z,32.40
2019-02-21T09:13:41.617Z,35.63
2019-02-21T09:16:06.895Z,32.17
2019-02-21T09:18:32.176Z,42.73
2019-02-21T09:20:57.416Z,39.53
2019-02-21T09:23:22.578Z,36.93
2019-02-21T09:25:49.559Z,33.50
2019-02-21T09:28:15.818Z,29.90
2019-02-21T09:30:41.143Z,33.40
2019-02-21T09:33:16.660Z,31.80
2019-02-21T09:35:33.396Z,35.00
2019-02-21T09:37:58.580Z,31.07
2019-02-21T09:40:24.171Z,37.27
2019-02-21T09:42:49.315Z,30.80
2019-02-21T09:45:17.386Z,28.87
2019-02-21T09:47:44.319Z,31.80
2019-02-21T09:50:09.806Z,31.47
2019-02-21T09:52:35.013Z,30.10
2019-02-21T09:55:00.328Z,33.17
2019-02-21T09:57:25.835Z,36.53
2019-02-21T09:59:51.376Z,31.07
2019-02-21T10:02:16.948Z,30.43
2019-02-21T10:04:42.146Z,36.00
2019-02-21T10:07:07.327Z,38.47
2019-02-21T10:09:32.760Z,37.50
2019-02-21T10:11:59.078Z,30.57
2019-02-21T10:14:25.595Z,32.77
2019-02-21T10:16:50.789Z,29.90
2019-02-21T10:19:16.111Z,32.57
2019-02-21T10:21:41.968Z,32.23
2019-02-21T10:24:07.559Z,33.50
2019-02-21T10:26:33.312Z,33.83
2019-02-21T10:28:58.493Z,34.20
2019-02-21T10:31:23.779Z,33.77
2019-02-21T10:33:48.960Z,32.73
2019-02-21T10:36:14.312Z,33.87
2019-02-21T10:38:39.485Z,36.90
2019-02-21T10:41:05.064Z,29.30
2019-02-21T10:43:30.259Z,39.60
2019-02-21T10:45:55.457Z,33.70
2019-02-21T10:48:20.663Z,37.63
2019-02-21T10:50:45.864Z,29.83
2019-02-21T10:53:12.015Z,38.10
2019-02-21T10:55:38.058Z,31.43
2019-02-21T10:58:03.228Z,40.17
2019-02-21T11:00:29.163Z,32.80
2019-02-21T11:02:54.616Z,34.90
2019-02-21T11:05:20.012Z,31.83
2019-02-21T11:07:45.188Z,34.07
2019-02-21T11:10:12.189Z,34.97
2019-02-21T11:12:37.403Z,36.20
2019-02-21T11:15:06.207Z,33.87
2019-02-21T11:17:32.485Z,33.57
2019-02-21T11:19:57.723Z,33.90
2019-02-21T11:22:22.974Z,34.73
2019-02-21T11:24:48.187Z,38.00
2019-02-21T11:27:13.356Z,36.10
2019-02-21T11:29:38.539Z,38.63
2019-02-21T11:32:03.735Z,41.10
2019-02-21T11:34:28.985Z,36.90
2019-02-21T11:36:54.172Z,31.50
2019-02-21T11:39:19.444Z,36.70
2019-02-21T11:41:44.614Z,32.23
2019-02-21T11:44:09.793Z,32.30
2019-02-21T11:46:35.137Z,39.80
2019-02-21T11:49:00.443Z,39.47
2019-02-21T11:51:25.699Z,40.97
2019-02-21T11:53:50.954Z,36.43
2019-02-21T11:56:16.246Z,33.33
2019-02-21T11:58:41.537Z,32.23
2019-02-21T12:01:08.363Z,30.77
2019-02-21T12:03:33.850Z,48.50
2019-02-21T12:05:59.030Z,35.10
2019-02-21T12:08:24.318Z,39.03
2019-02-21T12:10:50.998Z,40.27
2019-02-21T12:13:16.402Z,38.03
2019-02-21T12:15:41.584Z,41.50
2019-02-21T12:18:06.808Z,34.80
2019-02-21T12:20:31.958Z,40.50
2019-02-21T12:22:57.247Z,32.97
2019-02-21T12:25:23.443Z,39.07
2019-02-21T12:27:48.623Z,46.57
2019-02-21T12:30:15.703Z,35.53
2019-02-21T12:32:40.871Z,36.37
2019-02-21T12:35:07.307Z,36.00
2019-02-21T12:37:32.560Z,33.17
2019-02-21T12:39:57.771Z,33.43
2019-02-21T12:42:23.230Z,42.57
2019-02-21T12:44:48.409Z,35.53
2019-02-21T12:47:13.638Z,37.27
2019-02-21T12:49:38.907Z,40.03
2019-02-21T12:52:04.116Z,41.53
2019-02-21T12:54:31.537Z,40.83
2019-02-21T12:56:56.881Z,36.37
2019-02-21T12:59:22.071Z,36.77
2019-02-21T13:01:47.359Z,35.90
2019-02-21T13:04:12.534Z,45.87
2019-02-21T13:06:38.004Z,45.53
2019-02-21T13:09:04.453Z,38.43
2019-02-21T13:11:31.567Z,38.90
2019-02-21T13:13:56.998Z,35.20
2019-02-21T13:16:22.523Z,35.83
2019-02-21T13:18:47.783Z,41.30
2019-02-21T13:21:12.983Z,42.97
2019-02-21T13:23:38.632Z,38.27
2019-02-21T13:26:04.164Z,35.90
2019-02-21T13:28:29.680Z,37.20
2019-02-21T13:30:55.322Z,40.80
2019-02-21T13:33:20.902Z,40.03
2019-02-21T13:35:52.745Z,42.70
2019-02-21T13:38:13.949Z,46.90
2019-02-21T13:40:39.263Z,42.50
2019-02-21T13:43:04.497Z,43.20
2019-02-21T13:45:29.765Z,38.07
2019-02-21T13:47:55.330Z,47.37
2019-02-21T13:50:23.554Z,37.80
2019-02-21T13:52:48.080Z,36.53
2019-02-21T13:55:16.927Z,39.33
2019-02-21T13:57:42.491Z,39.00
2019-02-21T14:00:15.331Z,41.50
2019-02-21T14:02:40.569Z,37.53
2019-02-21T14:05:06.327Z,41.33
2019-02-21T14:07:31.532Z,41.97
2019-02-21T14:09:56.847Z,41.67
2019-02-21T14:12:22.091Z,39.17
2019-02-21T14:14:47.654Z,38.87
2019-02-21T14:17:15.100Z,40.00
2019-02-21T14:19:40.710Z,38.30
2019-02-21T14:22:06.699Z,38.37
2019-02-21T14:24:36.744Z,53.10
2019-02-21T14:26:59.822Z,39.30
2019-02-21T14:29:25.563Z,45.00
2019-02-21T14:31:51.921Z,42.37
2019-02-21T14:34:17.116Z,48.27
2019-02-21T14:36:42.746Z,57.73
2019-02-21T14:39:10.528Z,36.33
2019-02-21T14:41:35.899Z,40.20
2019-02-21T14:44:01.277Z,41.23
2019-02-21T14:46:26.737Z,41.73
2019-02-21T14:48:51.896Z,49.87
2019-02-21T14:51:20.538Z,45.37
2019-02-21T14:53:47.925Z,42.33
2019-02-21T14:56:13.396Z,41.73
2019-02-21T14:58:38.645Z,37.93
2019-02-21T15:01:04.373Z,44.67
2019-02-21T15:03:29.753Z,57.83
2019-02-21T15:05:54.932Z,40.33
2019-02-21T15:08:22.093Z,40.30
2019-02-21T15:10:47.316Z,46.53
2019-02-21T15:13:12.615Z,50.07
2019-02-21T15:15:37.959Z,42.67
2019-02-21T15:18:07.489Z,36.87
2019-02-21T15:20:36.786Z,41.30
2019-02-21T15:22:57.435Z,38.47
2019-02-21T15:25:22.635Z,40.07
2019-02-21T15:27:51.222Z,38.07
2019-02-21T15:30:24.784Z,43.17
2019-02-21T15:32:49.961Z,46.37
2019-02-21T15:35:15.141Z,35.83
2019-02-21T15:37:40.339Z,32.17
2019-02-21T15:40:08.955Z,38.40
2019-02-21T15:42:34.223Z,38.70
2019-02-21T15:44:59.528Z,39.30
2019-02-21T15:47:24.693Z,33.43
2019-02-21T15:49:49.879Z,34.67
2019-02-21T15:52:22.318Z,34.97
2019-02-21T15:54:42.424Z,29.87
2019-02-21T15:57:07.585Z,33.50
2019-02-21T15:59:32.871Z,33.30
2019-02-21T16:01:58.041Z,34.83
2019-02-21T16:04:23.191Z,38.83
2019-02-21T16:06:51.727Z,35.17
2019-02-21T16:09:16.635Z,35.47
2019-02-21T16:11:42.089Z,33.03
2019-02-21T16:14:07.360Z,34.73
2019-02-21T16:16:32.626Z,38.47
2019-02-21T16:18:58.962Z,47.37
2019-02-21T16:21:24.698Z,40.10
2019-02-21T16:23:49.884Z,47.33
2019-02-21T16:26:15.043Z,50.87
2019-02-21T16:28:40.211Z,47.33
2019-02-21T16:31:05.426Z,49.13
2019-02-21T16:33:30.618Z,50.33
2019-02-21T16:35:55.783Z,46.50
2019-02-21T16:38:21.320Z,41.93
2019-02-21T16:40:46.872Z,46.10
2019-02-21T16:43:12.410Z,44.43
2019-02-21T16:45:43.721Z,41.80
2019-02-21T16:48:05.612Z,46.77
2019-02-21T16:50:31.148Z,41.90
2019-02-21T16:52:56.696Z,44.53
2019-02-21T16:55:22.751Z,42.50
2019-02-21T16:57:48.311Z,41.50
2019-02-21T17:00:14.947Z,44.13
2019-02-21T17:02:40.547Z,46.67
2019-02-21T17:05:06.669Z,41.40
2019-02-21T17:07:32.202Z,43.80
2019-02-21T17:09:57.752Z,45.43
2019-02-21T17:12:23.321Z,39.20
2019-02-21T17:14:48.975Z,36.43
2019-02-21T17:17:15.432Z,40.90
2019-02-21T17:19:41.036Z,37.27
2019-02-21T17:22:06.898Z,34.30
2019-02-21T17:24:32.200Z,31.00
2019-02-21T17:26:57.882Z,33.83
2019-02-21T17:29:23.559Z,33.53
2019-02-21T17:31:49.154Z,36.90
2019-02-21T17:34:14.731Z,32.73
2019-02-21T17:36:40.325Z,32.57
2019-02-21T17:39:05.855Z,28.90
2019-02-21T17:41:32.690Z,30.20
2019-02-21T17:43:58.266Z,26.50
2019-02-21T17:46:23.879Z,23.30
2019-02-21T17:48:49.551Z,24.43
2019-02-21T17:51:15.368Z,23.40
2019-02-21T17:53:40.975Z,24.97
2019-02-21T17:56:07.919Z,20.60
2019-02-21T17:58:33.548Z,20.67
2019-02-21T18:00:59.098Z,25.77
2019-02-21T18:03:24.315Z,21.50
2019-02-21T18:05:49.740Z,22.10
2019-02-21T18:08:14.966Z,22.30
2019-02-21T18:10:40.246Z,24.87
2019-02-21T18:13:05.588Z,23.90
2019-02-21T18:15:32.936Z,24.20
2019-02-21T18:17:58.214Z,21.90
2019-02-21T18:20:23.455Z,23.47
2019-02-21T18:22:48.740Z,26.23
2019-02-21T18:25:23.648Z,23.50
2019-02-21T18:27:48.818Z,23.13
2019-02-21T18:30:15.860Z,23.50
2019-02-21T18:32:42.135Z,20.53
2019-02-21T18:35:11.487Z,18.60
2019-02-21T18:37:46.651Z,19.43
2019-02-21T18:40:16.907Z,23.07
2019-02-21T18:42:34.971Z,21.93
2019-02-21T18:45:00.162Z,19.00
2019-02-21T18:47:25.376Z,20.90
2019-02-21T18:49:50.556Z,20.77
2019-02-21T18:52:15.839Z,18.77
2019-02-21T18:54:41.034Z,22.00
2019-02-21T18:57:06.258Z,21.03
2019-02-21T18:59:32.101Z,22.17
2019-02-21T19:01:58.600Z,21.70
2019-02-21T19:04:23.942Z,21.03
2019-02-21T19:06:49.407Z,23.70
2019-02-21T19:09:14.837Z,18.63
2019-02-21T19:11:40.015Z,20.07
2019-02-21T19:14:05.471Z,18.20
2019-02-21T19:16:30.926Z,19.30
2019-02-21T19:18:56.305Z,18.90
2019-02-21T19:21:21.752Z,21.20
2019-02-21T19:23:47.027Z,20.20
2019-02-21T19:26:12.392Z,20.10
2019-02-21T19:28:37.948Z,20.17
2019-02-21T19:31:07.255Z,21.20
2019-02-21T19:33:32.909Z,20.60
2019-02-21T19:35:58.233Z,25.77
2019-02-21T19:38:25.093Z,21.33
2019-02-21T19:40:51.376Z,22.10
2019-02-21T19:43:17.191Z,20.90
2019-02-21T19:45:42.541Z,23.43
2019-02-21T19:48:11.607Z,29.77
2019-02-21T19:50:37.412Z,23.33
2019-02-21T19:53:02.693Z,22.73
2019-02-21T19:55:28.097Z,23.63
2019-02-21T19:58:01.794Z,19.97
2019-02-21T20:00:28.999Z,23.47
2019-02-21T20:02:54.363Z,32.17
2019-02-21T20:05:19.752Z,30.70
2019-02-21T20:07:45.263Z,28.20
2019-02-21T20:10:10.712Z,28.10
2019-02-21T20:12:36.516Z,29.40
2019-02-21T20:15:03.547Z,31.00
2019-02-21T20:17:28.952Z,32.10
2019-02-21T20:19:54.256Z,30.80
2019-02-21T20:22:19.491Z,36.37
2019-02-21T20:24:46.238Z,33.43
2019-02-21T20:27:11.656Z,38.07
2019-02-21T20:29:36.959Z,40.03
2019-02-21T20:32:03.261Z,36.47
2019-02-21T20:34:29.756Z,41.67
2019-02-21T20:36:54.970Z,41.37
2019-02-21T20:39:21.566Z,37.90
2019-02-21T20:41:46.965Z,44.20
2019-02-21T20:44:12.675Z,43.87
2019-02-21T20:46:41.591Z,46.23
2019-02-21T20:49:06.791Z,50.53
2019-02-21T20:51:31.963Z,47.33
2019-02-21T20:53:57.247Z,52.23
2019-02-21T20:56:22.491Z,57.10
2019-02-21T20:58:47.924Z,50.83
2019-02-21T21:01:16.686Z,53.93
2019-02-21T21:03:41.843Z,57.63
2019-02-21T21:06:07.351Z,64.90
2019-02-21T21:08:42.499Z,57.50
2019-02-21T21:10:59.778Z,57.57
2019-02-21T21:13:28.098Z,59.10
2019-02-21T21:15:53.853Z,64.70
2019-02-21T21:18:19.142Z,65.63
2019-02-21T21:20:44.663Z,72.43
2019-02-21T21:23:09.960Z,67.27
2019-02-21T21:25:35.230Z,70.43
2019-02-21T21:28:00.411Z,71.50
2019-02-21T21:30:25.742Z,67.80
2019-02-21T21:32:50.919Z,69.80
2019-02-21T21:35:16.107Z,75.10
2019-02-21T21:37:41.407Z,68.33
2019-02-21T21:40:10.094Z,73.63
2019-02-21T21:42:38.450Z,75.87
2019-02-21T21:45:07.576Z,68.33
2019-02-21T21:47:32.754Z,67.47
2019-02-21T21:49:57.935Z,63.00
2019-02-21T21:52:23.272Z,77.10
2019-02-21T21:54:48.448Z,78.23
2019-02-21T21:57:13.658Z,71.37
2019-02-21T21:59:38.845Z,71.27
2019-02-21T22:02:04.152Z,70.47
2019-02-21T22:04:29.901Z,76.17
2019-02-21T22:06:55.795Z,73.23
2019-02-21T22:09:21.171Z,73.13
2019-02-21T22:11:46.338Z,71.40
2019-02-21T22:14:11.574Z,75.83
2019-02-21T22:16:36.845Z,69.43
2019-02-21T22:19:02.330Z,80.57
2019-02-21T22:21:27.510Z,75.50
2019-02-21T22:23:52.708Z,80.27
2019-02-21T22:26:18.002Z,80.47
2019-02-21T22:28:43.320Z,80.23
2019-02-21T22:31:08.764Z,94.20
2019-02-21T22:33:36.248Z,82.00
2019-02-21T22:36:01.810Z,81.80
2019-02-21T22:38:27.268Z,88.83
2019-02-21T22:40:52.777Z,81.43
2019-02-21T22:43:18.107Z,80.67
2019-02-21T22:45:43.459Z,87.97
2019-02-21T22:48:08.830Z,73.33
2019-02-21T22:50:34.273Z,88.10
2019-02-21T22:53:00.789Z,76.80
2019-02-21T22:55:27.696Z,89.23
2019-02-21T22:57:53.144Z,82.23
2019-02-21T23:00:35.769Z,83.83
2019-02-21T23:03:06.089Z,80.90
2019-02-21T23:05:56.725Z,96.10
2019-02-21T23:08:28.710Z,91.00
2019-02-21T23:10:54.101Z,91.37
2019-02-21T23:13:19.512Z,95.63
2019-02-21T23:15:45.077Z,90.63
2019-02-21T23:18:10.672Z,101.07
2019-02-21T23:20:36.026Z,99.67
2019-02-21T23:23:01.548Z,86.93
2019-02-21T23:25:27.160Z,99.80
2019-02-21T23:27:52.433Z,90.40
2019-02-21T23:30:17.594Z,96.50
2019-02-21T23:32:43.076Z,94.70
2019-02-21T23:35:09.697Z,97.90
2019-02-21T23:37:35.549Z,96.57
2019-02-21T23:40:01.443Z,95.93
2019-02-21T23:42:27.114Z,84.80
2019-02-21T23:44:52.879Z,99.17
2019-02-21T23:47:18.375Z,93.33
2019-02-21T23:49:43.793Z,103.57
2019-02-21T23:52:09.067Z,97.17
2019-02-21T23:54:34.377Z,94.83
2019-02-21T23:56:59.564Z,94.93
2019-02-21T23:59:24.853Z,101.83
